createdAt,value
2022-09-02T00:01:38.420Z,16.50
2022-09-02T00:04:08.521Z,16.40
2022-09-02T00:06:36.576Z,16.40
2022-09-02T00:09:06.419Z,16.40
2022-09-02T00:11:36.030Z,16.30
2022-09-02T00:14:07.538Z,16.30
2022-09-02T00:16:35.467Z,16.30
2022-09-02T00:19:04.070Z,16.30
2022-09-02T00:21:35.846Z,16.20
2022-09-02T00:24:05.604Z,16.20
2022-09-02T00:26:33.029Z,16.30
2022-09-02T00:29:01.685Z,16.30
2022-09-02T00:31:29.166Z,16.20
2022-09-02T00:33:57.098Z,16.20
2022-09-02T00:36:24.216Z,16.20
2022-09-02T00:38:51.862Z,16.10
2022-09-02T00:41:22.683Z,16.10
2022-09-02T00:43:55.275Z,16.10
2022-09-02T00:46:26.003Z,16.10
2022-09-02T00:48:56.432Z,16.00
2022-09-02T00:51:24.492Z,16.00
2022-09-02T00:53:52.026Z,16.00
2022-09-02T00:56:23.833Z,16.00
2022-09-02T00:58:52.295Z,16.00
2022-09-02T01:01:22.572Z,16.00
2022-09-02T01:03:51.268Z,15.90
2022-09-02T01:06:24.444Z,15.90
2022-09-02T01:09:01.640Z,15.90
2022-09-02T01:11:37.665Z,15.90
2022-09-02T01:14:06.062Z,15.90
2022-09-02T01:16:42.148Z,15.80
2022-09-02T01:19:17.766Z,15.80
2022-09-02T01:21:48.632Z,15.70
2022-09-02T01:24:17.048Z,15.70
2022-09-02T01:26:44.073Z,15.80
2022-09-02T01:29:11.216Z,15.70
2022-09-02T01:31:38.500Z,15.70
2022-09-02T01:34:06.633Z,15.70
2022-09-02T01:36:37.479Z,15.70
2022-09-02T01:39:04.849Z,15.60
2022-09-02T01:41:32.098Z,15.60
2022-09-02T01:43:59.340Z,15.60
2022-09-02T01:46:27.203Z,15.60
2022-09-02T01:48:54.347Z,15.50
2022-09-02T01:51:21.974Z,15.50
2022-09-02T01:53:49.315Z,15.50
2022-09-02T01:56:16.882Z,15.40
2022-09-02T01:58:44.290Z,15.40
2022-09-02T02:01:12.119Z,15.40
2022-09-02T02:03:41.623Z,15.40
2022-09-02T02:06:12.418Z,15.30
2022-09-02T02:08:41.359Z,15.30
2022-09-02T02:11:10.828Z,15.30
2022-09-02T02:13:38.320Z,15.30
2022-09-02T02:16:06.186Z,15.30
2022-09-02T02:18:33.595Z,15.40
2022-09-02T02:21:00.868Z,15.40
2022-09-02T02:23:28.070Z,15.40
2022-09-02T02:25:55.102Z,15.40
2022-09-02T02:28:23.118Z,15.30
2022-09-02T02:30:50.329Z,15.30
2022-09-02T02:33:17.499Z,15.30
2022-09-02T02:35:44.637Z,15.40
2022-09-02T02:38:14.317Z,15.40
2022-09-02T02:40:41.929Z,15.30
2022-09-02T02:43:09.647Z,15.30
2022-09-02T02:45:37.571Z,15.30
2022-09-02T02:48:05.231Z,15.20
2022-09-02T02:50:33.718Z,15.20
2022-09-02T02:53:02.796Z,15.10
2022-09-02T02:55:29.988Z,15.20
2022-09-02T02:57:57.752Z,15.20
2022-09-02T03:00:29.699Z,15.20
2022-09-02T03:03:00.808Z,15.20
2022-09-02T03:05:28.743Z,15.20
2022-09-02T03:07:57.584Z,15.20
2022-09-02T03:10:25.378Z,15.20
2022-09-02T03:12:54.264Z,15.20
2022-09-02T03:15:22.063Z,15.20
2022-09-02T03:17:52.867Z,15.10
2022-09-02T03:20:21.887Z,15.10
2022-09-02T03:22:56.781Z,15.10
2022-09-02T03:25:24.231Z,15.10
2022-09-02T03:27:55.411Z,15.20
2022-09-02T03:30:25.735Z,15.10
2022-09-02T03:32:55.195Z,15.10
2022-09-02T03:35:23.568Z,15.10
2022-09-02T03:37:52.580Z,15.10
2022-09-02T03:40:24.232Z,15.20
2022-09-02T03:42:56.733Z,15.20
2022-09-02T03:45:27.807Z,15.20
2022-09-02T03:47:55.949Z,15.20
2022-09-02T03:50:30.380Z,15.10
2022-09-02T03:52:59.775Z,15.20
2022-09-02T03:55:28.367Z,15.20
2022-09-02T03:57:55.809Z,15.20
2022-09-02T04:00:29.106Z,15.20
2022-09-02T04:02:59.370Z,15.10
2022-09-02T04:05:28.079Z,15.10
2022-09-02T04:07:57.503Z,14.90
2022-09-02T04:10:25.318Z,14.90
2022-09-02T04:12:53.198Z,14.90
2022-09-02T04:15:21.457Z,14.80
2022-09-02T04:17:50.961Z,14.80
2022-09-02T04:20:20.885Z,14.80
2022-09-02T04:22:48.136Z,14.80
2022-09-02T04:25:16.367Z,14.80
2022-09-02T04:27:45.438Z,14.80
2022-09-02T04:30:16.482Z,14.80
2022-09-02T04:32:44.711Z,14.90
2022-09-02T04:35:12.908Z,14.90
2022-09-02T04:37:40.935Z,14.90
2022-09-02T04:40:09.397Z,14.90
2022-09-02T04:42:37.774Z,14.90
2022-09-02T04:45:06.071Z,14.80
2022-09-02T04:47:33.882Z,14.90
2022-09-02T04:50:02.402Z,14.90
2022-09-02T04:52:31.856Z,14.90
2022-09-02T04:55:00.091Z,15.00
2022-09-02T04:57:29.967Z,15.00
2022-09-02T04:59:57.399Z,15.00
2022-09-02T05:02:25.580Z,15.00
2022-09-02T05:04:53.112Z,15.00
2022-09-02T05:07:28.366Z,15.00
2022-09-02T05:09:59.456Z,15.00
2022-09-02T05:12:32.123Z,15.10
2022-09-02T05:15:01.229Z,15.10
2022-09-02T05:17:35.676Z,15.20
2022-09-02T05:20:06.259Z,15.20
2022-09-02T05:22:34.776Z,15.20
2022-09-02T05:25:07.543Z,15.20
2022-09-02T05:27:35.960Z,15.30
2022-09-02T05:30:04.743Z,15.30
2022-09-02T05:32:37.764Z,15.40
2022-09-02T05:35:06.653Z,15.50
2022-09-02T05:37:36.620Z,15.60
2022-09-02T05:40:06.172Z,15.70
2022-09-02T05:42:37.099Z,15.70
2022-09-02T05:45:05.556Z,15.80
2022-09-02T05:47:34.672Z,15.90
2022-09-02T05:50:02.074Z,16.00
2022-09-02T05:52:34.434Z,16.20
2022-09-02T05:55:04.145Z,16.30
2022-09-02T05:57:33.077Z,16.40
2022-09-02T06:00:07.865Z,16.40
2022-09-02T06:02:43.206Z,16.60
2022-09-02T06:05:19.597Z,16.60
2022-09-02T06:07:53.669Z,16.70
2022-09-02T06:10:22.851Z,16.70
2022-09-02T06:12:50.618Z,16.90
2022-09-02T06:15:21.167Z,17.00
2022-09-02T06:17:49.279Z,17.10
2022-09-02T06:20:16.608Z,17.30
2022-09-02T06:22:44.702Z,17.50
2022-09-02T06:25:12.907Z,17.70
2022-09-02T06:27:41.267Z,18.00
2022-09-02T06:30:09.773Z,18.30
2022-09-02T06:32:36.872Z,18.50
2022-09-02T06:35:09.766Z,18.90
2022-09-02T06:37:38.306Z,19.30
2022-09-02T06:40:06.140Z,19.60
2022-09-02T06:42:33.735Z,20.00
2022-09-02T06:45:09.391Z,20.40
2022-09-02T06:47:38.074Z,20.90
2022-09-02T06:50:05.689Z,21.30
2022-09-02T06:52:33.023Z,22.40
2022-09-02T06:55:01.272Z,23.10
2022-09-02T06:57:31.410Z,24.30
2022-09-02T07:00:07.470Z,25.50
2022-09-02T07:02:35.775Z,25.50
2022-09-02T07:05:15.142Z,25.50
2022-09-02T07:07:46.077Z,25.80
2022-09-02T07:10:15.656Z,25.40
2022-09-02T07:12:47.684Z,26.00
2022-09-02T07:15:17.319Z,27.00
2022-09-02T07:17:45.200Z,27.70
2022-09-02T07:20:18.633Z,27.60
2022-09-02T07:22:56.727Z,27.90
2022-09-02T07:25:26.275Z,27.40
2022-09-02T07:27:54.714Z,27.50
2022-09-02T07:30:23.320Z,28.00
2022-09-02T07:32:57.733Z,27.80
2022-09-02T07:35:27.749Z,27.20
2022-09-02T07:37:56.073Z,26.60
2022-09-02T07:40:23.616Z,26.30
2022-09-02T07:42:52.125Z,25.70
2022-09-02T07:45:21.257Z,25.20
2022-09-02T07:47:49.591Z,24.50
2022-09-02T07:50:20.208Z,24.10
2022-09-02T07:52:54.102Z,24.00
2022-09-02T07:55:22.066Z,24.40
2022-09-02T07:57:51.027Z,25.40
2022-09-02T08:00:22.798Z,27.30
2022-09-02T08:02:51.510Z,29.20
2022-09-02T08:05:24.998Z,30.90
2022-09-02T08:07:52.222Z,32.10
2022-09-02T08:10:20.806Z,32.40
2022-09-02T08:12:48.404Z,33.60
2022-09-02T08:15:17.178Z,34.40
2022-09-02T08:17:44.507Z,34.00
2022-09-02T08:20:12.932Z,34.60
2022-09-02T08:22:40.654Z,34.90
2022-09-02T08:25:08.494Z,35.90
2022-09-02T08:27:36.587Z,36.00
2022-09-02T08:30:06.319Z,36.30
2022-09-02T08:32:33.335Z,35.70
2022-09-02T08:35:02.957Z,35.40
2022-09-02T08:37:31.543Z,34.30
2022-09-02T08:39:59.163Z,33.70
2022-09-02T08:42:39.268Z,33.00
2022-09-02T08:45:27.512Z,32.10
2022-09-02T08:48:20.512Z,30.90
2022-09-02T08:50:52.278Z,29.10
2022-09-02T08:53:32.228Z,28.10
2022-09-02T08:56:02.036Z,27.60
2022-09-02T08:58:37.223Z,27.40
2022-09-02T09:01:18.733Z,27.30
2022-09-02T09:04:05.704Z,27.30
2022-09-02T09:06:58.018Z,27.30
2022-09-02T09:09:55.486Z,27.00
2022-09-02T09:12:42.499Z,26.90
2022-09-02T09:15:31.189Z,26.90
2022-09-02T09:18:01.885Z,26.70
2022-09-02T09:20:33.912Z,26.90
2022-09-02T09:23:06.172Z,27.10
2022-09-02T09:25:33.215Z,27.20
2022-09-02T09:28:01.616Z,27.10
2022-09-02T09:30:29.893Z,27.10
2022-09-02T09:33:00.497Z,27.20
2022-09-02T09:35:46.705Z,27.40
2022-09-02T09:38:14.666Z,27.30
2022-09-02T09:40:41.892Z,27.20
2022-09-02T09:43:15.228Z,27.20
2022-09-02T09:45:48.235Z,27.20
2022-09-02T09:48:23.180Z,27.40
2022-09-02T09:51:11.971Z,27.40
2022-09-02T09:53:41.062Z,27.40
2022-09-02T09:56:24.169Z,27.00
2022-09-02T09:58:52.653Z,26.90
2022-09-02T10:01:35.809Z,26.90
2022-09-02T10:04:20.707Z,26.90
2022-09-02T10:06:53.340Z,27.10
2022-09-02T10:09:20.317Z,27.20
2022-09-02T10:12:07.369Z,27.30
2022-09-02T10:14:38.378Z,27.50
2022-09-02T10:17:11.012Z,27.50
2022-09-02T10:19:41.471Z,27.60
2022-09-02T10:22:59.773Z,27.40
2022-09-02T10:25:43.083Z,27.10
2022-09-02T10:28:51.784Z,26.60
2022-09-02T10:31:58.875Z,26.30
2022-09-02T10:34:41.817Z,26.20
2022-09-02T10:37:20.105Z,26.20
2022-09-02T10:40:02.377Z,25.80
2022-09-02T10:42:30.543Z,25.50
2022-09-02T10:45:07.921Z,25.60
2022-09-02T10:47:38.298Z,25.70
2022-09-02T10:50:25.467Z,25.90
2022-09-02T10:53:03.723Z,25.90
2022-09-02T10:55:52.558Z,26.00
2022-09-02T10:58:44.403Z,26.00
2022-09-02T11:01:19.417Z,25.90
2022-09-02T11:04:14.626Z,25.70
2022-09-02T11:07:02.105Z,25.40
2022-09-02T11:09:37.294Z,25.10
2022-09-02T11:12:12.720Z,24.80
2022-09-02T11:15:16.077Z,24.80
2022-09-02T11:20:50.546Z,24.80
2022-09-02T11:23:29.802Z,24.70
2022-09-02T11:26:04.854Z,24.90
2022-09-02T11:28:55.866Z,25.40
2022-09-02T11:31:28.353Z,25.70
2022-09-02T11:36:39.710Z,26.20
2022-09-02T11:39:12.420Z,26.30
2022-09-02T11:41:59.372Z,26.00
2022-09-02T11:45:06.796Z,26.00
2022-09-02T11:48:13.729Z,25.90
2022-09-02T11:50:51.569Z,25.80
2022-09-02T11:53:25.548Z,26.10
2022-09-02T11:56:02.497Z,26.10
2022-09-02T11:58:30.783Z,25.90
2022-09-02T12:00:58.613Z,25.50
2022-09-02T12:03:46.927Z,25.70
2022-09-02T12:06:20.309Z,25.90
2022-09-02T12:08:50.167Z,25.70
2022-09-02T12:11:38.928Z,25.50
2022-09-02T12:14:10.074Z,25.30
2022-09-02T12:16:41.993Z,25.40
2022-09-02T12:19:10.853Z,25.40
2022-09-02T12:22:17.795Z,25.20
2022-09-02T12:24:52.259Z,24.90
2022-09-02T12:27:30.076Z,24.70
2022-09-02T12:29:59.419Z,24.70
2022-09-02T12:32:46.922Z,24.90
2022-09-02T12:35:35.187Z,24.70
2022-09-02T12:38:11.767Z,24.40
2022-09-02T12:40:49.934Z,24.30
2022-09-02T12:43:27.053Z,24.50
2022-09-02T12:46:04.620Z,24.80
2022-09-02T12:48:42.162Z,25.00
2022-09-02T12:51:09.564Z,24.90
2022-09-02T12:53:42.471Z,25.00
2022-09-02T12:56:25.398Z,24.70
2022-09-02T12:59:00.341Z,24.60
2022-09-02T13:01:43.557Z,24.40
2022-09-02T13:04:38.038Z,24.20
2022-09-02T13:07:46.702Z,24.10
2022-09-02T13:10:31.598Z,24.00
2022-09-02T13:13:22.107Z,24.10
2022-09-02T13:16:19.387Z,23.70
2022-09-02T13:18:55.881Z,23.50
2022-09-02T13:21:59.031Z,23.50
2022-09-02T13:24:41.209Z,23.40
2022-09-02T13:27:29.552Z,23.40
2022-09-02T13:30:16.551Z,23.30
2022-09-02T13:32:43.906Z,23.20
2022-09-02T13:35:23.938Z,23.40
2022-09-02T13:38:00.500Z,23.40
2022-09-02T13:40:29.231Z,23.50
2022-09-02T13:42:59.301Z,23.50
2022-09-02T13:45:28.100Z,23.50
2022-09-02T13:47:58.303Z,23.60
2022-09-02T13:50:29.985Z,23.60
2022-09-02T13:55:53.563Z,23.30
2022-09-02T13:58:30.972Z,23.40
2022-09-02T14:01:16.518Z,23.50
2022-09-02T14:06:40.391Z,23.50
2022-09-02T14:09:20.817Z,23.60
2022-09-02T14:11:49.561Z,23.60
2022-09-02T14:14:20.184Z,23.70
2022-09-02T14:16:47.512Z,23.70
2022-09-02T14:19:16.615Z,23.70
2022-09-02T14:21:47.001Z,23.60
2022-09-02T14:24:18.895Z,23.50
2022-09-02T14:26:47.967Z,23.40
2022-09-02T14:29:17.737Z,23.10
2022-09-02T14:31:45.997Z,23.00
2022-09-02T14:34:34.743Z,23.00
2022-09-02T14:37:14.609Z,23.40
2022-09-02T14:40:08.343Z,23.60
2022-09-02T14:42:57.303Z,23.80
2022-09-02T14:45:34.108Z,23.80
2022-09-02T14:48:10.786Z,23.80
2022-09-02T14:50:39.354Z,24.00
2022-09-02T14:53:09.324Z,24.10
2022-09-02T14:55:48.570Z,24.10
2022-09-02T14:58:18.531Z,24.10
2022-09-02T15:00:52.167Z,24.00
2022-09-02T15:03:20.209Z,23.80
2022-09-02T15:05:48.187Z,23.60
2022-09-02T15:08:16.702Z,23.60
2022-09-02T15:10:45.092Z,23.50
2022-09-02T15:13:22.355Z,23.60
2022-09-02T15:15:51.574Z,23.70
2022-09-02T15:18:18.602Z,23.50
2022-09-02T15:20:45.856Z,23.40
2022-09-02T15:23:12.998Z,23.30
2022-09-02T15:25:40.552Z,23.20
2022-09-02T15:28:07.680Z,23.20
2022-09-02T15:30:36.315Z,23.10
2022-09-02T15:33:05.387Z,23.00
2022-09-02T15:35:34.344Z,22.80
2022-09-02T15:38:03.298Z,22.60
2022-09-02T15:40:31.755Z,22.40
2022-09-02T15:43:00.312Z,22.30
2022-09-02T15:45:28.484Z,22.10
2022-09-02T15:47:59.081Z,22.00
2022-09-02T15:50:28.236Z,21.90
2022-09-02T15:52:56.091Z,21.80
2022-09-02T15:55:29.283Z,21.80
2022-09-02T15:57:57.291Z,21.70
2022-09-02T16:00:28.593Z,21.60
2022-09-02T16:02:57.135Z,21.50
2022-09-02T16:05:24.614Z,21.50
2022-09-02T16:07:55.321Z,21.50
2022-09-02T16:10:22.838Z,21.40
2022-09-02T16:12:49.842Z,21.40
2022-09-02T16:15:17.166Z,21.40
2022-09-02T16:17:44.504Z,21.40
2022-09-02T16:20:12.068Z,21.30
2022-09-02T16:22:39.274Z,21.30
2022-09-02T16:25:07.027Z,21.20
2022-09-02T16:27:53.996Z,21.20
2022-09-02T16:30:21.733Z,21.20
2022-09-02T16:32:50.794Z,21.10
2022-09-02T16:35:17.993Z,21.10
2022-09-02T16:37:45.429Z,21.00
2022-09-02T16:40:13.528Z,21.00
2022-09-02T16:42:41.244Z,20.80
2022-09-02T16:45:08.954Z,20.70
2022-09-02T16:47:35.996Z,20.70
2022-09-02T16:50:03.300Z,20.60
2022-09-02T16:52:32.291Z,20.60
2022-09-02T16:54:59.448Z,20.40
2022-09-02T16:57:26.551Z,20.40
2022-09-02T16:59:54.078Z,20.30
2022-09-02T17:02:21.139Z,20.20
2022-09-02T17:04:48.486Z,20.10
2022-09-02T17:07:15.519Z,20.00
2022-09-02T17:09:42.940Z,19.90
2022-09-02T17:12:10.030Z,19.80
2022-09-02T17:14:37.251Z,19.70
2022-09-02T17:17:04.481Z,19.50
2022-09-02T17:19:33.147Z,19.40
2022-09-02T17:22:00.688Z,19.30
2022-09-02T17:24:28.522Z,19.20
2022-09-02T17:26:56.430Z,19.10
2022-09-02T17:29:49.652Z,18.90
2022-09-02T17:32:18.365Z,18.80
2022-09-02T17:34:45.452Z,18.70
2022-09-02T17:37:13.206Z,18.60
2022-09-02T17:39:40.490Z,18.50
2022-09-02T17:42:07.898Z,18.40
2022-09-02T17:44:37.669Z,18.30
2022-09-02T17:47:07.379Z,18.30
2022-09-02T17:49:36.793Z,18.20
2022-09-02T17:52:07.706Z,18.10
2022-09-02T17:54:36.228Z,18.10
2022-09-02T17:57:28.406Z,18.10
2022-09-02T18:00:07.552Z,18.00
2022-09-02T18:02:37.854Z,17.90
2022-09-02T18:05:14.260Z,17.80
2022-09-02T18:08:04.838Z,17.70
2022-09-02T18:10:36.016Z,17.50
2022-09-02T18:13:14.932Z,17.40
2022-09-02T18:16:09.311Z,17.40
2022-09-02T18:18:46.233Z,17.30
2022-09-02T18:21:26.172Z,17.20
2022-09-02T18:24:05.612Z,17.10
2022-09-02T18:27:03.635Z,16.90
2022-09-02T18:29:41.660Z,16.90
2022-09-02T18:32:28.846Z,16.80
2022-09-02T18:35:19.634Z,16.70
2022-09-02T18:37:46.827Z,16.60
2022-09-02T18:40:50.161Z,16.40
2022-09-02T18:43:31.297Z,16.30
2022-09-02T18:46:01.443Z,16.30
2022-09-02T18:48:33.367Z,16.20
2022-09-02T18:51:11.478Z,16.20
2022-09-02T18:53:48.499Z,16.30
2022-09-02T18:56:17.501Z,16.30
2022-09-02T18:58:53.940Z,16.30
2022-09-02T19:01:23.902Z,16.20
2022-09-02T19:03:51.224Z,16.10
2022-09-02T19:06:22.525Z,16.10
2022-09-02T19:08:57.085Z,16.10
2022-09-02T19:11:25.863Z,16.00
2022-09-02T19:13:56.299Z,16.00
2022-09-02T19:16:27.793Z,15.90
2022-09-02T19:18:55.229Z,15.90
2022-09-02T19:21:33.902Z,15.90
2022-09-02T19:24:04.305Z,15.90
2022-09-02T19:26:31.830Z,15.90
2022-09-02T19:28:59.720Z,15.80
2022-09-02T19:31:29.800Z,15.80
2022-09-02T19:34:02.265Z,15.70
2022-09-02T19:36:31.959Z,15.70
2022-09-02T19:39:00.172Z,15.60
2022-09-02T19:41:28.121Z,15.60
2022-09-02T19:43:55.627Z,15.50
2022-09-02T19:46:57.847Z,15.50
2022-09-02T19:49:10.907Z,15.50
2022-09-02T19:51:37.983Z,15.50
2022-09-02T19:54:05.432Z,15.40
2022-09-02T19:56:32.933Z,15.40
2022-09-02T19:59:00.808Z,15.40
2022-09-02T20:01:28.301Z,15.30
2022-09-02T20:03:55.763Z,15.30
2022-09-02T20:06:23.152Z,15.20
2022-09-02T20:08:51.299Z,15.20
2022-09-02T20:11:18.363Z,15.10
2022-09-02T20:13:45.764Z,15.00
2022-09-02T20:16:20.638Z,15.00
2022-09-02T20:18:48.903Z,14.90
2022-09-02T20:21:24.584Z,14.80
2022-09-02T20:23:53.978Z,14.80
2022-09-02T20:26:42.003Z,14.70
2022-09-02T20:29:34.195Z,14.70
2022-09-02T20:32:14.243Z,14.80
2022-09-02T20:34:45.808Z,14.80
2022-09-02T20:37:53.010Z,14.70
2022-09-02T20:40:47.803Z,14.70
2022-09-02T20:43:27.674Z,14.60
2022-09-02T20:46:21.853Z,14.70
2022-09-02T20:49:24.495Z,14.70
2022-09-02T20:51:56.934Z,14.60
2022-09-02T20:54:31.545Z,14.60
2022-09-02T20:57:18.551Z,14.60
2022-09-02T21:00:10.311Z,14.60
2022-09-02T21:02:42.491Z,14.60
2022-09-02T21:05:22.407Z,14.60
2022-09-02T21:08:01.626Z,14.70
2022-09-02T21:10:34.853Z,14.80
2022-09-02T21:13:12.378Z,14.90
2022-09-02T21:16:00.918Z,15.00
2022-09-02T21:18:35.749Z,15.10
2022-09-02T21:21:11.103Z,15.10
2022-09-02T21:23:44.796Z,15.10
2022-09-02T21:26:38.738Z,15.00
2022-09-02T21:29:19.991Z,14.90
2022-09-02T21:32:03.004Z,14.70
2022-09-02T21:34:38.258Z,14.60
2022-09-02T21:37:07.919Z,14.50
2022-09-02T21:39:39.317Z,14.50
2022-09-02T21:42:17.444Z,14.40
2022-09-02T21:44:55.896Z,14.40
2022-09-02T21:47:43.516Z,14.20
2022-09-02T21:50:22.244Z,14.20
2022-09-02T21:52:58.029Z,14.10
2022-09-02T21:56:05.132Z,14.10
2022-09-02T21:59:03.222Z,14.00
2022-09-02T22:01:44.333Z,14.00
2022-09-02T22:04:38.040Z,13.90
2022-09-02T22:07:19.354Z,13.80
2022-09-02T22:09:50.673Z,13.70
2022-09-02T22:12:18.452Z,13.60
2022-09-02T22:15:17.204Z,13.60
2022-09-02T22:17:55.491Z,13.60
2022-09-02T22:20:31.220Z,13.50
2022-09-02T22:23:05.332Z,13.50
2022-09-02T22:25:34.599Z,13.40
2022-09-02T22:28:06.962Z,13.40
2022-09-02T22:30:39.000Z,13.30
2022-09-02T22:33:11.986Z,13.30
2022-09-02T22:35:52.318Z,13.30
2022-09-02T22:38:44.311Z,13.30
2022-09-02T22:41:12.577Z,13.30
2022-09-02T22:43:49.284Z,13.30
2022-09-02T22:46:44.996Z,13.20
2022-09-02T22:49:36.806Z,13.20
2022-09-02T22:52:56.855Z,13.10
2022-09-02T22:55:50.929Z,13.10
2022-09-02T22:58:54.188Z,13.10
2022-09-02T23:01:45.245Z,13.00
2022-09-02T23:04:39.823Z,13.00
2022-09-02T23:07:08.072Z,13.00
2022-09-02T23:09:37.970Z,12.90
2022-09-02T23:12:32.698Z,12.80
2022-09-02T23:15:20.193Z,12.80
2022-09-02T23:18:17.367Z,12.70
2022-09-02T23:21:16.935Z,12.70
2022-09-02T23:24:13.517Z,12.70
2022-09-02T23:26:49.943Z,12.70
2022-09-02T23:29:26.260Z,12.70
2022-09-02T23:31:58.939Z,12.70
2022-09-02T23:34:34.275Z,12.70
2022-09-02T23:37:30.161Z,12.70
2022-09-02T23:40:11.564Z,12.70
2022-09-02T23:42:39.460Z,12.70
2022-09-02T23:45:19.767Z,12.80
2022-09-02T23:47:54.756Z,12.80
2022-09-02T23:50:27.711Z,12.80
2022-09-02T23:53:07.338Z,12.80
2022-09-02T23:55:49.514Z,12.70
2022-09-02T23:58:33.778Z,12.60
